CheckWX is a tool to help pilots better visualize weather data.  It is not intended as a substitute for an official pre-flight weather briefing.

18:02:37 UTC

KSEP METAR
Stephenville Clark Regional Airport
Stephenville, Texas, USA
Current

8 mins ago

KSEP 241755Z AUTO 03005KT 10SM SCT012 BKN110 18/15 A2987 RMK AO2 60021 T01780146 10182 20151
Observed
Apr-24 @ 17:55 UTC
Wind
  • 030° at 5 KTS
Visibility
10 SM
Flight Rules
VFR
Cloud Levels
  • Scattered at 1,200' AGL
  • Broken at 11,000' AGL
Temperature
18°C / 64°F
Dewpoint
15°C / 59°F
Humidity
83%
Altimeter
29.87" Hg
Pressure
1011.52 hPa
Previous

28 mins ago

KSEP 241735Z AUTO 04006KT 10SM SCT014 BKN110 18/15 A2988 RMK AO2 T01780146
Observed
Apr-24 @ 17:35 UTC
Wind
  • 040° at 6 KTS
Visibility
10 SM
Flight Rules
VFR
Cloud Levels
  • Scattered at 1,400' AGL
  • Broken at 11,000' AGL
Temperature
18°C / 64°F
Dewpoint
15°C / 59°F
Humidity
83%
Altimeter
29.88" Hg
Pressure
1011.82 hPa
Previous

48 mins ago

KSEP 241715Z AUTO 04008KT 10SM BKN012 BKN120 18/15 A2989 RMK AO2 T01750150
Observed
Apr-24 @ 17:15 UTC
Wind
  • 040° at 8 KTS
Visibility
10 SM
Flight Rules
MVFR
Cloud Levels
  • Broken at 1,200' AGL
  • Broken at 12,000' AGL
Temperature
18°C / 64°F
Dewpoint
15°C / 59°F
Humidity
83%
Altimeter
29.89" Hg
Pressure
1012.22 hPa